createdAt,value
2023-01-29T00:00:19.231Z,19.63
2023-01-29T00:02:45.809Z,36.70
2023-01-29T00:05:26.536Z,30.17
2023-01-29T00:07:54.843Z,25.43
2023-01-29T00:10:21.219Z,26.07
2023-01-29T00:12:47.381Z,26.33
2023-01-29T00:15:13.578Z,26.43
2023-01-29T00:17:39.745Z,25.57
2023-01-29T00:20:06.422Z,22.67
2023-01-29T00:22:32.551Z,32.40
2023-01-29T00:24:58.731Z,31.70
2023-01-29T00:27:24.881Z,27.83
2023-01-29T00:30:10.982Z,27.10
2023-01-29T00:32:37.658Z,25.10
2023-01-29T00:35:04.779Z,25.40
2023-01-29T00:37:30.996Z,40.43
2023-01-29T00:39:57.997Z,36.50
2023-01-29T00:42:44.336Z,47.90
2023-01-29T00:45:12.006Z,33.13
2023-01-29T00:47:38.273Z,28.57
2023-01-29T00:50:11.093Z,23.83
2023-01-29T00:52:40.150Z,22.43
2023-01-29T00:55:07.778Z,19.77
2023-01-29T00:57:35.351Z,19.50
2023-01-29T01:00:04.407Z,25.53
2023-01-29T01:02:48.922Z,32.10
2023-01-29T01:05:17.380Z,33.43
2023-01-29T01:07:52.935Z,32.87
2023-01-29T01:10:30.789Z,25.23
2023-01-29T01:13:04.843Z,26.70
2023-01-29T01:15:36.163Z,23.20
2023-01-29T01:18:03.513Z,23.67
2023-01-29T01:20:33.060Z,23.97
2023-01-29T01:22:59.266Z,22.40
2023-01-29T01:25:27.094Z,25.23
2023-01-29T01:27:56.604Z,31.27
2023-01-29T01:30:24.232Z,24.17
2023-01-29T01:32:50.847Z,27.30
2023-01-29T01:35:17.289Z,20.97
2023-01-29T01:37:43.484Z,21.53
2023-01-29T01:40:19.554Z,18.97
2023-01-29T01:42:52.713Z,20.20
2023-01-29T01:45:33.640Z,19.03
2023-01-29T01:48:18.204Z,20.50
2023-01-29T01:51:02.750Z,19.67
2023-01-29T01:53:39.796Z,18.80
2023-01-29T01:56:15.512Z,17.17
2023-01-29T01:58:53.523Z,21.33
2023-01-29T02:01:28.386Z,17.40
2023-01-29T02:04:30.124Z,21.10
2023-01-29T02:07:19.937Z,16.97
2023-01-29T02:09:57.336Z,20.57
2023-01-29T02:12:24.031Z,19.07
2023-01-29T02:14:51.258Z,17.33
2023-01-29T02:17:19.583Z,19.70
2023-01-29T02:20:24.560Z,18.93
2023-01-29T02:23:31.282Z,16.17
2023-01-29T02:26:30.151Z,16.87
2023-01-29T02:29:34.494Z,16.33
2023-01-29T02:32:28.784Z,16.33
2023-01-29T02:35:31.314Z,15.97
2023-01-29T02:38:29.834Z,17.23
2023-01-29T02:41:11.968Z,16.83
2023-01-29T02:43:50.848Z,17.37
2023-01-29T02:46:44.102Z,17.17
2023-01-29T02:49:15.044Z,16.33
2023-01-29T02:52:15.969Z,17.43
2023-01-29T02:54:53.358Z,16.00
2023-01-29T02:57:29.326Z,18.70
2023-01-29T03:00:25.586Z,18.63
2023-01-29T03:03:11.067Z,15.97
2023-01-29T03:06:01.498Z,15.83
2023-01-29T03:08:42.195Z,17.30
2023-01-29T03:11:15.782Z,17.50
2023-01-29T03:14:24.847Z,18.23
2023-01-29T03:16:53.620Z,15.90
2023-01-29T03:19:43.806Z,17.03
2023-01-29T03:22:22.498Z,19.53
2023-01-29T03:25:14.675Z,19.73
2023-01-29T03:28:09.469Z,17.17
2023-01-29T03:31:20.117Z,16.90
2023-01-29T03:34:23.702Z,14.97
2023-01-29T03:36:56.932Z,19.07
2023-01-29T03:39:27.850Z,17.93
2023-01-29T03:42:17.717Z,17.23
2023-01-29T03:45:22.954Z,14.77
2023-01-29T03:48:15.797Z,15.33
2023-01-29T03:51:11.437Z,18.03
2023-01-29T03:53:56.544Z,16.20
2023-01-29T03:56:56.647Z,19.13
2023-01-29T03:59:46.160Z,16.50
2023-01-29T04:03:12.899Z,16.60
2023-01-29T04:05:57.827Z,18.20
2023-01-29T04:08:35.581Z,18.20
2023-01-29T04:11:11.788Z,18.00
2023-01-29T04:13:39.374Z,18.80
2023-01-29T04:16:11.908Z,18.77
2023-01-29T04:19:07.847Z,18.03
2023-01-29T04:21:39.728Z,17.57
2023-01-29T04:24:07.894Z,22.07
2023-01-29T04:27:10.922Z,18.77
2023-01-29T04:29:57.113Z,16.90
2023-01-29T04:33:01.454Z,19.73
2023-01-29T04:35:54.222Z,20.23
2023-01-29T04:38:42.357Z,20.83
2023-01-29T04:41:21.698Z,23.20
2023-01-29T04:44:27.784Z,20.47
2023-01-29T04:47:11.821Z,21.13
2023-01-29T04:50:16.798Z,19.83
2023-01-29T04:52:52.716Z,17.30
2023-01-29T04:55:46.710Z,21.10
2023-01-29T04:58:21.896Z,19.60
2023-01-29T05:00:53.534Z,19.77
2023-01-29T05:03:25.921Z,25.07
2023-01-29T05:05:56.417Z,21.23
2023-01-29T05:08:25.351Z,24.57
2023-01-29T05:10:55.116Z,20.50
2023-01-29T05:13:23.871Z,20.33
2023-01-29T05:15:55.784Z,20.47
2023-01-29T05:18:22.299Z,21.90
2023-01-29T05:20:49.660Z,24.13
2023-01-29T05:23:21.719Z,27.53
2023-01-29T05:25:51.137Z,41.83
2023-01-29T05:28:18.098Z,39.30
2023-01-29T05:30:47.735Z,45.90
2023-01-29T05:33:30.833Z,49.00
2023-01-29T05:35:59.478Z,51.03
2023-01-29T05:38:25.701Z,65.87
2023-01-29T05:40:51.848Z,37.33
2023-01-29T05:43:22.161Z,39.67
2023-01-29T05:45:58.261Z,33.40
2023-01-29T05:48:27.969Z,29.53
2023-01-29T05:50:59.603Z,26.10
2023-01-29T05:53:25.737Z,27.53
2023-01-29T05:55:51.893Z,28.03
2023-01-29T05:58:18.976Z,26.93
2023-01-29T06:00:45.146Z,26.53
2023-01-29T06:03:11.351Z,24.57
2023-01-29T06:05:38.951Z,23.17
2023-01-29T06:08:06.487Z,30.00
2023-01-29T06:10:33.054Z,37.77
2023-01-29T06:12:59.263Z,37.10
2023-01-29T06:15:25.736Z,34.50
2023-01-29T06:17:56.581Z,32.17
2023-01-29T06:20:23.785Z,34.37
2023-01-29T06:22:49.909Z,30.73
2023-01-29T06:25:16.349Z,32.57
2023-01-29T06:27:42.497Z,32.90
2023-01-29T06:30:09.696Z,37.50
2023-01-29T06:32:35.901Z,29.87
2023-01-29T06:35:02.209Z,32.43
2023-01-29T06:37:28.376Z,28.97
2023-01-29T06:39:54.579Z,27.73
2023-01-29T06:42:26.911Z,33.10
2023-01-29T06:44:57.150Z,29.60
2023-01-29T06:47:24.328Z,27.07
2023-01-29T06:49:50.619Z,30.23
2023-01-29T06:52:16.772Z,26.07
2023-01-29T06:54:42.924Z,27.60
2023-01-29T06:57:09.151Z,24.70
2023-01-29T06:59:35.301Z,23.37
2023-01-29T07:02:03.135Z,25.93
2023-01-29T07:04:29.300Z,25.90
2023-01-29T07:06:55.493Z,26.00
2023-01-29T07:09:21.650Z,25.10
2023-01-29T07:11:47.796Z,27.57
2023-01-29T07:14:14.002Z,25.83
2023-01-29T07:16:40.211Z,25.23
2023-01-29T07:19:06.462Z,23.63
2023-01-29T07:21:32.678Z,27.77
2023-01-29T07:23:58.860Z,24.27
2023-01-29T07:26:25.313Z,24.93
2023-01-29T07:28:51.441Z,24.93
2023-01-29T07:31:18.054Z,23.80
2023-01-29T07:33:44.620Z,26.07
2023-01-29T07:36:12.331Z,24.77
2023-01-29T07:38:38.515Z,30.93
2023-01-29T07:41:10.489Z,30.80
2023-01-29T07:43:39.867Z,29.50
2023-01-29T07:46:06.580Z,29.17
2023-01-29T07:48:42.458Z,28.97
2023-01-29T07:51:12.222Z,27.00
2023-01-29T07:53:44.054Z,28.10
2023-01-29T07:56:10.511Z,25.13
2023-01-29T07:58:38.386Z,28.33
2023-01-29T08:01:06.980Z,31.17
2023-01-29T08:03:33.311Z,28.07
2023-01-29T08:06:03.373Z,32.87
2023-01-29T08:08:37.087Z,35.50
2023-01-29T08:11:07.928Z,37.70
2023-01-29T08:13:39.024Z,36.13
2023-01-29T08:16:09.277Z,34.40
2023-01-29T08:18:48.532Z,37.40
2023-01-29T08:21:22.915Z,35.13
2023-01-29T08:23:50.379Z,35.93
2023-01-29T08:26:18.664Z,36.43
2023-01-29T08:28:48.609Z,35.67
2023-01-29T08:31:17.355Z,31.13
2023-01-29T08:33:44.487Z,31.20
2023-01-29T08:36:10.958Z,33.40
2023-01-29T08:38:37.333Z,31.87
2023-01-29T08:41:05.565Z,37.90
2023-01-29T08:43:40.329Z,33.00
2023-01-29T08:46:11.058Z,35.50
2023-01-29T08:48:42.390Z,32.03
2023-01-29T08:51:09.450Z,32.00
2023-01-29T08:53:38.744Z,34.80
2023-01-29T08:56:06.663Z,31.80
2023-01-29T08:58:34.252Z,32.63
2023-01-29T09:01:13.569Z,34.10
2023-01-29T09:03:46.204Z,35.57
2023-01-29T09:06:14.263Z,34.77
2023-01-29T09:08:41.524Z,35.73
2023-01-29T09:11:12.429Z,36.10
2023-01-29T09:13:42.065Z,38.33
2023-01-29T09:16:10.147Z,45.47
2023-01-29T09:18:36.717Z,45.30
2023-01-29T09:21:03.769Z,42.03
2023-01-29T09:23:30.496Z,40.27
2023-01-29T09:25:57.052Z,46.70
2023-01-29T09:28:26.143Z,45.30
2023-01-29T09:30:52.501Z,47.00
2023-01-29T09:33:18.972Z,41.50
2023-01-29T09:35:46.353Z,42.90
2023-01-29T09:38:13.480Z,41.70
2023-01-29T09:41:14.369Z,43.00
2023-01-29T09:43:49.887Z,42.00
2023-01-29T09:46:37.832Z,45.77
2023-01-29T09:49:13.974Z,42.83
2023-01-29T09:51:47.171Z,43.17
2023-01-29T09:54:20.894Z,48.50
2023-01-29T09:56:53.403Z,51.43
2023-01-29T09:59:24.093Z,47.63
2023-01-29T10:02:00.791Z,50.67
2023-01-29T10:04:51.879Z,46.83
2023-01-29T10:07:37.329Z,46.63
2023-01-29T10:10:30.649Z,49.20
2023-01-29T10:13:36.675Z,47.37
2023-01-29T10:16:26.089Z,48.23
2023-01-29T10:19:16.133Z,52.70
2023-01-29T10:22:16.755Z,50.57
2023-01-29T10:25:10.916Z,50.50
2023-01-29T10:27:41.356Z,47.27
2023-01-29T10:30:23.088Z,45.43
2023-01-29T10:32:50.463Z,51.00
2023-01-29T10:35:21.664Z,49.40
2023-01-29T10:37:51.748Z,47.17
2023-01-29T10:40:28.549Z,49.90
2023-01-29T10:43:27.823Z,46.43
2023-01-29T10:46:22.105Z,49.13
2023-01-29T10:48:57.097Z,50.13
2023-01-29T10:51:46.139Z,44.80
2023-01-29T10:54:17.689Z,50.30
2023-01-29T10:57:13.376Z,43.67
2023-01-29T10:59:50.109Z,46.93
2023-01-29T11:02:21.309Z,45.30
2023-01-29T11:04:48.152Z,48.43
2023-01-29T11:07:18.920Z,46.80
2023-01-29T11:09:55.045Z,46.80
2023-01-29T11:12:29.725Z,47.63
2023-01-29T11:15:23.924Z,50.17
2023-01-29T11:18:03.584Z,47.43
2023-01-29T11:20:32.609Z,48.10
2023-01-29T11:22:59.604Z,41.40
2023-01-29T11:25:30.581Z,45.03
2023-01-29T11:28:01.045Z,45.27
2023-01-29T11:30:34.858Z,45.73
2023-01-29T11:33:22.810Z,47.03
2023-01-29T11:35:51.769Z,42.70
2023-01-29T11:38:29.885Z,41.20
2023-01-29T11:41:15.960Z,40.87
2023-01-29T11:43:42.098Z,43.33
2023-01-29T11:46:15.255Z,48.13
2023-01-29T11:48:49.373Z,45.67
2023-01-29T11:51:28.627Z,42.63
2023-01-29T11:54:02.571Z,43.20
2023-01-29T11:56:42.806Z,39.13
2023-01-29T11:59:47.714Z,39.20
2023-01-29T12:02:37.183Z,39.57
2023-01-29T12:05:15.732Z,41.37
2023-01-29T12:07:48.146Z,44.50
2023-01-29T12:10:29.454Z,43.60
2023-01-29T12:13:19.087Z,42.20
2023-01-29T12:15:47.232Z,40.97
2023-01-29T12:18:32.268Z,40.40
2023-01-29T12:21:07.133Z,39.43
2023-01-29T12:24:37.910Z,41.00
2023-01-29T12:27:24.294Z,39.70
2023-01-29T12:30:19.075Z,38.57
2023-01-29T12:33:19.848Z,40.30
2023-01-29T12:35:54.399Z,40.83
2023-01-29T12:38:23.382Z,40.37
2023-01-29T12:41:06.512Z,38.80
2023-01-29T12:43:46.182Z,38.67
2023-01-29T12:46:27.791Z,37.67
2023-01-29T12:48:59.389Z,39.97
2023-01-29T12:51:35.635Z,37.27
2023-01-29T12:54:16.396Z,38.20
2023-01-29T12:56:48.542Z,39.23
2023-01-29T12:59:32.320Z,36.97
2023-01-29T13:02:16.129Z,36.80
2023-01-29T13:04:55.150Z,36.57
2023-01-29T13:07:33.332Z,33.90
2023-01-29T13:10:18.564Z,29.67
2023-01-29T13:12:58.966Z,39.60
2023-01-29T13:15:35.682Z,37.57
2023-01-29T13:18:35.804Z,37.33
2023-01-29T13:21:04.599Z,33.53
2023-01-29T13:23:38.565Z,38.30
2023-01-29T13:26:05.412Z,37.03
2023-01-29T13:28:31.971Z,34.53
2023-01-29T13:31:27.654Z,35.40
2023-01-29T13:34:14.683Z,38.13
2023-01-29T13:36:54.348Z,35.97
2023-01-29T13:39:32.493Z,36.67
2023-01-29T13:42:01.973Z,35.37
2023-01-29T13:44:36.630Z,38.67
2023-01-29T13:47:09.315Z,33.30
2023-01-29T13:49:46.444Z,37.73
2023-01-29T13:52:27.518Z,36.00
2023-01-29T13:55:00.013Z,37.20
2023-01-29T13:57:56.295Z,37.13
2023-01-29T14:00:29.909Z,38.23
2023-01-29T14:03:07.807Z,34.60
2023-01-29T14:05:57.306Z,34.07
2023-01-29T14:08:44.452Z,35.20
2023-01-29T14:11:16.663Z,30.47
2023-01-29T14:13:46.073Z,36.30
2023-01-29T14:16:12.251Z,33.63
2023-01-29T14:19:00.505Z,33.23
2023-01-29T14:21:33.708Z,33.47
2023-01-29T14:24:23.847Z,33.00
2023-01-29T14:26:55.034Z,32.43
2023-01-29T14:29:34.614Z,30.10
2023-01-29T14:32:07.158Z,29.60
2023-01-29T14:34:47.079Z,29.33
2023-01-29T14:37:16.083Z,29.57
2023-01-29T14:40:12.388Z,26.73
2023-01-29T14:42:55.831Z,27.43
2023-01-29T14:45:37.807Z,33.00
2023-01-29T14:48:10.139Z,29.73
2023-01-29T14:50:36.450Z,28.60
2023-01-29T14:53:47.737Z,28.80
2023-01-29T14:56:27.719Z,24.03
2023-01-29T14:59:32.030Z,27.07
2023-01-29T15:02:12.049Z,24.50
2023-01-29T15:04:47.085Z,25.70
2023-01-29T15:07:50.293Z,22.17
2023-01-29T15:10:37.781Z,22.17
2023-01-29T15:13:24.044Z,22.17
2023-01-29T15:16:15.209Z,21.97
2023-01-29T15:18:43.067Z,20.03
2023-01-29T15:21:16.246Z,23.67
2023-01-29T15:23:44.101Z,23.03
2023-01-29T15:26:19.104Z,20.80
2023-01-29T15:29:03.253Z,20.00
2023-01-29T15:31:30.469Z,22.77
2023-01-29T15:33:57.013Z,23.53
2023-01-29T15:36:31.285Z,24.07
2023-01-29T15:39:12.358Z,21.77
2023-01-29T15:41:38.708Z,21.60
2023-01-29T15:44:17.793Z,19.60
2023-01-29T15:46:55.563Z,19.93
2023-01-29T15:49:37.153Z,21.30
2023-01-29T15:52:17.134Z,20.47
2023-01-29T15:54:44.008Z,20.10
2023-01-29T15:57:24.733Z,19.23
2023-01-29T15:59:55.698Z,22.57
2023-01-29T16:02:45.225Z,21.43
2023-01-29T16:05:18.135Z,20.33
2023-01-29T16:07:45.521Z,22.03
2023-01-29T16:10:26.550Z,18.07
2023-01-29T16:12:53.636Z,18.63
2023-01-29T16:15:39.431Z,21.30
2023-01-29T16:18:35.972Z,18.87
2023-01-29T16:21:16.202Z,19.17
2023-01-29T16:23:54.512Z,22.10
2023-01-29T16:26:33.882Z,20.90
2023-01-29T16:29:10.647Z,22.27
2023-01-29T16:31:38.724Z,22.07
2023-01-29T16:34:28.386Z,22.77
2023-01-29T16:36:56.139Z,23.87
2023-01-29T16:39:46.960Z,24.53
2023-01-29T16:42:16.586Z,21.97
2023-01-29T16:44:53.783Z,29.23
2023-01-29T16:47:37.190Z,24.40
2023-01-29T16:50:36.094Z,21.70
2023-01-29T16:53:16.988Z,22.63
2023-01-29T16:55:48.595Z,23.27
2023-01-29T16:58:29.450Z,21.07
2023-01-29T17:01:14.255Z,21.40
2023-01-29T17:03:41.427Z,20.97
2023-01-29T17:06:18.099Z,23.60
2023-01-29T17:08:44.533Z,23.70
2023-01-29T17:11:24.322Z,24.63
2023-01-29T17:13:50.529Z,21.33
2023-01-29T17:16:27.818Z,23.87
2023-01-29T17:18:54.677Z,21.87
2023-01-29T17:21:21.344Z,22.20
2023-01-29T17:23:47.604Z,24.00
2023-01-29T17:26:14.098Z,22.53
2023-01-29T17:28:41.410Z,21.77
2023-01-29T17:31:07.761Z,22.90
2023-01-29T17:33:38.852Z,25.77
2023-01-29T17:36:05.720Z,21.73
2023-01-29T17:38:32.346Z,20.47
2023-01-29T17:41:23.692Z,24.07
2023-01-29T17:43:51.014Z,22.47
2023-01-29T17:46:18.822Z,24.47
2023-01-29T17:48:45.970Z,22.43
2023-01-29T17:51:15.840Z,24.93
2023-01-29T17:53:45.820Z,24.13
2023-01-29T17:56:28.785Z,24.50
2023-01-29T17:58:55.020Z,23.87
2023-01-29T18:01:21.204Z,23.97
2023-01-29T18:03:47.371Z,23.90
2023-01-29T18:06:28.485Z,26.77
2023-01-29T18:08:55.894Z,25.80
2023-01-29T18:11:22.721Z,22.47
2023-01-29T18:13:48.891Z,27.67
2023-01-29T18:16:17.343Z,25.17
2023-01-29T18:18:43.663Z,25.07
2023-01-29T18:21:09.846Z,25.23
2023-01-29T18:23:35.982Z,29.50
2023-01-29T18:26:02.140Z,29.30
2023-01-29T18:28:29.002Z,26.20
2023-01-29T18:30:55.269Z,28.43
2023-01-29T18:33:23.444Z,27.23
2023-01-29T18:35:49.621Z,29.83
2023-01-29T18:38:16.934Z,26.93
2023-01-29T18:40:43.090Z,25.17
2023-01-29T18:43:09.228Z,30.23
2023-01-29T18:45:35.620Z,28.37
2023-01-29T18:48:01.909Z,25.90
2023-01-29T18:50:28.051Z,33.13
2023-01-29T18:52:54.610Z,27.77
2023-01-29T18:55:22.424Z,24.43
2023-01-29T18:58:27.446Z,28.07
2023-01-29T19:00:39.629Z,25.50
2023-01-29T19:03:05.791Z,25.93
2023-01-29T19:05:33.552Z,29.40
2023-01-29T19:08:00.244Z,35.53
2023-01-29T19:10:26.683Z,34.70
2023-01-29T19:12:52.925Z,29.33
2023-01-29T19:15:21.197Z,29.17
2023-01-29T19:17:48.652Z,28.27
2023-01-29T19:20:15.336Z,28.83
2023-01-29T19:22:41.468Z,26.87
2023-01-29T19:25:08.390Z,27.70
2023-01-29T19:27:34.542Z,29.20
2023-01-29T19:30:01.361Z,39.93
2023-01-29T19:32:28.225Z,28.70
2023-01-29T19:34:54.654Z,34.40
2023-01-29T19:37:21.122Z,29.43
2023-01-29T19:39:47.250Z,27.20
2023-01-29T19:42:13.698Z,27.80
2023-01-29T19:44:39.965Z,29.77
2023-01-29T19:47:06.460Z,29.57
2023-01-29T19:49:33.385Z,25.23
2023-01-29T19:52:04.376Z,30.47
2023-01-29T19:54:30.516Z,26.70
2023-01-29T19:56:56.656Z,24.00
2023-01-29T19:59:22.826Z,31.07
2023-01-29T20:01:49.032Z,27.47
2023-01-29T20:04:15.193Z,25.90
2023-01-29T20:06:41.395Z,26.03
2023-01-29T20:09:07.800Z,25.37
2023-01-29T20:11:34.237Z,27.03
2023-01-29T20:14:00.789Z,26.87
2023-01-29T20:16:27.013Z,27.17
2023-01-29T20:18:53.289Z,26.07
2023-01-29T20:21:21.089Z,22.60
2023-01-29T20:23:51.472Z,28.87
2023-01-29T20:26:18.907Z,25.57
2023-01-29T20:28:47.076Z,28.20
2023-01-29T20:31:14.363Z,26.63
2023-01-29T20:33:41.108Z,31.77
2023-01-29T20:36:10.251Z,24.50
2023-01-29T20:38:36.611Z,29.00
2023-01-29T20:41:14.747Z,27.97
2023-01-29T20:43:42.691Z,24.67
2023-01-29T20:46:09.483Z,26.33
2023-01-29T20:48:36.432Z,29.90
2023-01-29T20:51:15.893Z,27.33
2023-01-29T20:53:47.372Z,24.37
2023-01-29T20:56:15.472Z,23.23
2023-01-29T20:58:41.927Z,25.17
2023-01-29T21:01:10.679Z,24.77
2023-01-29T21:03:39.171Z,25.57
2023-01-29T21:06:07.864Z,25.57
2023-01-29T21:08:35.082Z,30.07
2023-01-29T21:11:02.400Z,28.63
2023-01-29T21:13:28.589Z,25.47
2023-01-29T21:15:54.789Z,26.90
2023-01-29T21:18:20.987Z,29.47
2023-01-29T21:20:49.665Z,25.67
2023-01-29T21:23:15.808Z,24.90
2023-01-29T21:25:41.960Z,26.33
2023-01-29T21:28:08.189Z,24.70
2023-01-29T21:30:34.393Z,26.60
2023-01-29T21:33:00.532Z,29.53
2023-01-29T21:35:26.695Z,26.27
2023-01-29T21:37:53.079Z,22.27
2023-01-29T21:40:20.619Z,29.57
2023-01-29T21:43:06.044Z,28.57
2023-01-29T21:45:35.741Z,20.67
2023-01-29T21:48:01.964Z,28.63
2023-01-29T21:50:28.092Z,19.53
2023-01-29T21:52:54.198Z,26.10
2023-01-29T21:55:20.356Z,27.83
2023-01-29T21:57:47.964Z,24.80
2023-01-29T22:00:14.761Z,22.23
2023-01-29T22:02:41.070Z,28.03
2023-01-29T22:05:18.641Z,25.40
2023-01-29T22:07:46.358Z,27.43
2023-01-29T22:10:12.676Z,24.20
2023-01-29T22:12:39.239Z,25.23
2023-01-29T22:15:06.838Z,26.67
2023-01-29T22:17:33.332Z,26.50
2023-01-29T22:19:59.478Z,29.70
2023-01-29T22:22:25.671Z,25.10
2023-01-29T22:24:54.051Z,28.23
2023-01-29T22:27:20.192Z,24.40
2023-01-29T22:29:46.337Z,25.27
2023-01-29T22:32:12.510Z,23.77
2023-01-29T22:34:38.628Z,25.90
2023-01-29T22:37:04.758Z,23.60
2023-01-29T22:39:30.899Z,25.40
2023-01-29T22:41:57.185Z,27.13
2023-01-29T22:44:23.471Z,24.47
2023-01-29T22:46:50.248Z,24.20
2023-01-29T22:49:17.472Z,24.97
2023-01-29T22:51:43.821Z,28.37
2023-01-29T22:54:10.760Z,25.80
2023-01-29T22:56:36.869Z,22.77
2023-01-29T22:59:03.063Z,21.67
2023-01-29T23:01:31.355Z,23.73
2023-01-29T23:03:57.507Z,23.13
2023-01-29T23:06:23.825Z,22.47
2023-01-29T23:08:50.871Z,21.53
2023-01-29T23:11:20.139Z,20.03
2023-01-29T23:13:54.444Z,22.23
2023-01-29T23:16:28.186Z,20.90
2023-01-29T23:18:56.076Z,21.53
2023-01-29T23:21:24.454Z,21.57
2023-01-29T23:24:00.575Z,20.87
2023-01-29T23:26:48.194Z,22.13
2023-01-29T23:29:14.687Z,21.40
2023-01-29T23:31:41.085Z,23.83
2023-01-29T23:34:07.284Z,19.90
2023-01-29T23:36:33.440Z,21.00
2023-01-29T23:38:59.611Z,21.67
2023-01-29T23:41:25.750Z,21.73
2023-01-29T23:43:52.354Z,21.10
2023-01-29T23:46:18.703Z,18.70
2023-01-29T23:48:44.822Z,22.53
2023-01-29T23:51:11.074Z,19.60
2023-01-29T23:53:37.913Z,20.97
2023-01-29T23:56:05.314Z,20.03
2023-01-29T23:58:33.661Z,21.17
